EZY74W EGKK-EKCH
Flight info
| Callsign | EZY74W |
|---|---|
| Flight time | 1h 21m |
| Altitude | 37000 |
| Route | FRANE1Z FRANE M604 PAAVO Q295 SOMVA DCT MAVAS DCT DOSUR DCT TALSA P729 TUDLO TUDLO4C |
| Aircraft | A20N/M-SDE2E3FGHIRWXY/LB1 |
Departure
| Time | 2026-05-04 12:46 |
|---|---|
| Airport | London Gatwick Airport (EGKK) |
Arrival
| Time | 2026-05-04 14:08 |
|---|---|
| Airport | Copenhagen Kastrup Airport (EKCH) |
| Time | Latitude | Longitude | Altitude | Speed | Heading |
|---|---|---|---|---|---|
| 2026-05-04 12:18 | 51.15581 | -0.17685 | 204 ft | 0 kts | 347° |
| 2026-05-04 12:30 | 51.15577 | -0.17684 | 205 ft | 2 kts | 346° |
| 2026-05-04 12:31 | 51.15562 | -0.17678 | 214 ft | 2 kts | 347° |
| 2026-05-04 12:31 | 51.15546 | -0.17672 | 210 ft | 2 kts | 346° |
| 2026-05-04 12:31 | 51.15530 | -0.17665 | 210 ft | 2 kts | 339° |
| 2026-05-04 12:31 | 51.15518 | -0.17650 | 216 ft | 1 kts | 251° |
| 2026-05-04 12:32 | 51.15519 | -0.17648 | 215 ft | 0 kts | 249° |
| 2026-05-04 12:32 | 51.15520 | -0.17645 | 215 ft | 0 kts | 258° |
| 2026-05-04 12:36 | 51.15517 | -0.17665 | 206 ft | 5 kts | 258° |
| 2026-05-04 12:36 | 51.15505 | -0.17760 | 204 ft | 12 kts | 258° |
| 2026-05-04 12:37 | 51.15484 | -0.17911 | 209 ft | 16 kts | 258° |
| 2026-05-04 12:37 | 51.15459 | -0.18094 | 213 ft | 17 kts | 258° |
| 2026-05-04 12:37 | 51.15421 | -0.18271 | 206 ft | 16 kts | 216° |
| 2026-05-04 12:37 | 51.15318 | -0.18255 | 204 ft | 16 kts | 165° |
| 2026-05-04 12:38 | 51.15213 | -0.18233 | 210 ft | 13 kts | 202° |
| 2026-05-04 12:38 | 51.15185 | -0.18367 | 207 ft | 15 kts | 262° |
| 2026-05-04 12:38 | 51.15158 | -0.18542 | 213 ft | 18 kts | 257° |
| 2026-05-04 12:38 | 51.15132 | -0.18729 | 204 ft | 18 kts | 257° |
| 2026-05-04 12:39 | 51.15103 | -0.18943 | 208 ft | 21 kts | 258° |
| 2026-05-04 12:39 | 51.15071 | -0.19183 | 208 ft | 22 kts | 257° |
| 2026-05-04 12:39 | 51.15040 | -0.19394 | 213 ft | 19 kts | 258° |
| 2026-05-04 12:39 | 51.15009 | -0.19622 | 207 ft | 22 kts | 258° |
| 2026-05-04 12:40 | 51.14974 | -0.19878 | 213 ft | 25 kts | 257° |
| 2026-05-04 12:40 | 51.14935 | -0.20164 | 207 ft | 27 kts | 257° |
| 2026-05-04 12:40 | 51.14899 | -0.20417 | 215 ft | 24 kts | 258° |
| 2026-05-04 12:40 | 51.14868 | -0.20643 | 211 ft | 22 kts | 257° |
| 2026-05-04 12:41 | 51.14834 | -0.20891 | 205 ft | 23 kts | 258° |
| 2026-05-04 12:41 | 51.14805 | -0.21097 | 207 ft | 16 kts | 256° |
| 2026-05-04 12:41 | 51.14769 | -0.21287 | 210 ft | 19 kts | 256° |
| 2026-05-04 12:41 | 51.14734 | -0.21402 | 211 ft | 6 kts | 188° |
| 2026-05-04 12:42 | 51.14733 | -0.21402 | 211 ft | 0 kts | 186° |
| 2026-05-04 12:43 | 51.14725 | -0.21403 | 205 ft | 3 kts | 185° |
| 2026-05-04 12:43 | 51.14687 | -0.21393 | 209 ft | 8 kts | 162° |
| 2026-05-04 12:43 | 51.14639 | -0.21340 | 207 ft | 9 kts | 160° |
| 2026-05-04 12:44 | 51.14612 | -0.21329 | 210 ft | 0 kts | 167° |
| 2026-05-04 12:44 | 51.14610 | -0.21328 | 204 ft | 2 kts | 167° |
| 2026-05-04 12:45 | 51.14561 | -0.21300 | 207 ft | 12 kts | 150° |
| 2026-05-04 12:45 | 51.14523 | -0.21169 | 204 ft | 15 kts | 85° |
| 2026-05-04 12:45 | 51.14528 | -0.21113 | 208 ft | 0 kts | 78° |
| 2026-05-04 12:46 | 51.14540 | -0.21029 | 215 ft | 35 kts | 77° |
| 2026-05-04 12:46 | 51.14645 | -0.20256 | 213 ft | 103 kts | 77° |
| 2026-05-04 12:46 | 51.14830 | -0.18866 | 307 ft | 144 kts | 79° |
| 2026-05-04 12:46 | 51.15032 | -0.17351 | 905 ft | 141 kts | 78° |
| 2026-05-04 12:47 | 51.15257 | -0.15812 | 1450 ft | 146 kts | 76° |
| 2026-05-04 12:47 | 51.15491 | -0.14230 | 2054 ft | 148 kts | 76° |
| 2026-05-04 12:47 | 51.15731 | -0.12541 | 2499 ft | 165 kts | 77° |
| 2026-05-04 12:47 | 51.15985 | -0.10663 | 2888 ft | 183 kts | 77° |
| 2026-05-04 12:48 | 51.16268 | -0.08566 | 3227 ft | 205 kts | 77° |
| 2026-05-04 12:48 | 51.16583 | -0.06207 | 3655 ft | 230 kts | 78° |
| 2026-05-04 12:48 | 51.16867 | -0.03572 | 4248 ft | 253 kts | 85° |
| 2026-05-04 12:48 | 51.16856 | -0.00671 | 5070 ft | 267 kts | 92° |
| 2026-05-04 12:49 | 51.16789 | 0.02322 | 6132 ft | 273 kts | 92° |
| 2026-05-04 12:49 | 51.16731 | 0.05378 | 7166 ft | 278 kts | 92° |
| 2026-05-04 12:49 | 51.16677 | 0.08484 | 8243 ft | 282 kts | 91° |
| 2026-05-04 12:49 | 51.17029 | 0.11561 | 9274 ft | 288 kts | 66° |
| 2026-05-04 12:50 | 51.17789 | 0.13508 | 10001 ft | 293 kts | 48° |
| 2026-05-04 12:50 | 51.19389 | 0.15605 | 10697 ft | 309 kts | 33° |
| 2026-05-04 12:50 | 51.21306 | 0.17435 | 11115 ft | 333 kts | 29° |
| 2026-05-04 12:50 | 51.23384 | 0.19304 | 11699 ft | 349 kts | 29° |
| 2026-05-04 12:51 | 51.25495 | 0.21269 | 12511 ft | 354 kts | 30° |
| 2026-05-04 12:51 | 51.27611 | 0.23318 | 12882 ft | 358 kts | 31° |
| 2026-05-04 12:51 | 51.29724 | 0.25427 | 13025 ft | 359 kts | 32° |
| 2026-05-04 12:51 | 51.31839 | 0.27569 | 13038 ft | 359 kts | 32° |
| 2026-05-04 12:52 | 51.33944 | 0.29714 | 13031 ft | 359 kts | 32° |
| 2026-05-04 12:52 | 51.36050 | 0.31866 | 13030 ft | 359 kts | 32° |
| 2026-05-04 12:52 | 51.38152 | 0.34013 | 13055 ft | 360 kts | 32° |
| 2026-05-04 12:52 | 51.40275 | 0.36180 | 13508 ft | 364 kts | 32° |
| 2026-05-04 12:53 | 51.42415 | 0.38365 | 14458 ft | 365 kts | 32° |
| 2026-05-04 12:53 | 51.44566 | 0.40562 | 15283 ft | 369 kts | 32° |
| 2026-05-04 12:53 | 51.46747 | 0.42791 | 16086 ft | 373 kts | 32° |
| 2026-05-04 12:53 | 51.48951 | 0.45046 | 16885 ft | 378 kts | 33° |
| 2026-05-04 12:54 | 51.51179 | 0.47329 | 17667 ft | 383 kts | 33° |
| 2026-05-04 12:54 | 51.53437 | 0.49647 | 18426 ft | 387 kts | 33° |
| 2026-05-04 12:54 | 51.55718 | 0.51991 | 19092 ft | 392 kts | 33° |
| 2026-05-04 12:54 | 51.58031 | 0.54371 | 19761 ft | 396 kts | 33° |
| 2026-05-04 12:55 | 51.60368 | 0.56777 | 20437 ft | 401 kts | 32° |
| 2026-05-04 12:55 | 51.61953 | 0.58311 | 20879 ft | 403 kts | 26° |
| 2026-05-04 12:55 | 51.63681 | 0.59407 | 21306 ft | 405 kts | 15° |
| 2026-05-04 12:56 | 51.69690 | 0.62428 | 22743 ft | 415 kts | 26° |
| 2026-05-04 12:56 | 51.72137 | 0.64850 | 23366 ft | 420 kts | 35° |
| 2026-05-04 12:56 | 51.74447 | 0.67788 | 23921 ft | 425 kts | 40° |
| 2026-05-04 12:56 | 51.76665 | 0.70976 | 24435 ft | 429 kts | 43° |
| 2026-05-04 12:57 | 51.78858 | 0.74280 | 24947 ft | 433 kts | 43° |
| 2026-05-04 12:57 | 51.81060 | 0.77636 | 25452 ft | 438 kts | 43° |
| 2026-05-04 12:57 | 51.83257 | 0.80983 | 25933 ft | 442 kts | 43° |
| 2026-05-04 12:57 | 51.85431 | 0.84513 | 26392 ft | 446 kts | 51° |
| 2026-05-04 12:58 | 51.86971 | 0.88227 | 26792 ft | 448 kts | 63° |
| 2026-05-04 12:58 | 51.88296 | 0.92797 | 27262 ft | 450 kts | 69° |
| 2026-05-04 12:58 | 51.89445 | 0.97531 | 27731 ft | 453 kts | 71° |
| 2026-05-04 12:58 | 51.90555 | 1.02327 | 28167 ft | 457 kts | 71° |
| 2026-05-04 12:59 | 51.91679 | 1.07165 | 28585 ft | 461 kts | 71° |
| 2026-05-04 12:59 | 51.92827 | 1.12030 | 29008 ft | 464 kts | 70° |
| 2026-05-04 12:59 | 51.93992 | 1.16919 | 29423 ft | 467 kts | 70° |
| 2026-05-04 12:59 | 51.95172 | 1.21842 | 29830 ft | 470 kts | 70° |
| 2026-05-04 13:00 | 51.96357 | 1.26788 | 30211 ft | 473 kts | 70° |
| 2026-05-04 13:00 | 51.97553 | 1.31782 | 30582 ft | 475 kts | 70° |
| 2026-05-04 13:00 | 51.98748 | 1.36790 | 30943 ft | 478 kts | 70° |
| 2026-05-04 13:00 | 51.99948 | 1.41826 | 31331 ft | 479 kts | 70° |
| 2026-05-04 13:01 | 52.01148 | 1.46876 | 31793 ft | 479 kts | 71° |
| 2026-05-04 13:01 | 52.02342 | 1.51914 | 32252 ft | 478 kts | 71° |
| 2026-05-04 13:01 | 52.03533 | 1.56951 | 32695 ft | 478 kts | 71° |
| 2026-05-04 13:01 | 52.04721 | 1.61987 | 33119 ft | 478 kts | 71° |
| 2026-05-04 13:02 | 52.05907 | 1.67028 | 33546 ft | 477 kts | 71° |
| 2026-05-04 13:02 | 52.07082 | 1.72034 | 33968 ft | 477 kts | 71° |
| 2026-05-04 13:02 | 52.08265 | 1.77086 | 34353 ft | 476 kts | 71° |
| 2026-05-04 13:02 | 52.09440 | 1.82115 | 34729 ft | 475 kts | 71° |
| 2026-05-04 13:03 | 52.10607 | 1.87121 | 35085 ft | 474 kts | 71° |
| 2026-05-04 13:03 | 52.11787 | 1.92196 | 35444 ft | 473 kts | 71° |
| 2026-05-04 13:03 | 52.12943 | 1.97179 | 35784 ft | 472 kts | 71° |
| 2026-05-04 13:03 | 52.14101 | 2.02181 | 36112 ft | 471 kts | 71° |
| 2026-05-04 13:04 | 52.15253 | 2.07170 | 36446 ft | 470 kts | 71° |
| 2026-05-04 13:04 | 52.16399 | 2.12144 | 36767 ft | 469 kts | 71° |
| 2026-05-04 13:04 | 52.17542 | 2.17118 | 36979 ft | 469 kts | 71° |
| 2026-05-04 13:05 | 52.19817 | 2.27049 | 37018 ft | 467 kts | 71° |
| 2026-05-04 13:05 | 52.22078 | 2.36971 | 37019 ft | 467 kts | 71° |
| 2026-05-04 13:06 | 52.24335 | 2.46917 | 37016 ft | 468 kts | 71° |
| 2026-05-04 13:06 | 52.26584 | 2.56877 | 37017 ft | 468 kts | 71° |
| 2026-05-04 13:07 | 52.28829 | 2.66866 | 37015 ft | 468 kts | 71° |
| 2026-05-04 13:07 | 52.31065 | 2.76862 | 37010 ft | 469 kts | 71° |
| 2026-05-04 13:08 | 52.33298 | 2.86892 | 37010 ft | 469 kts | 71° |
| 2026-05-04 13:08 | 52.35520 | 2.96925 | 37008 ft | 470 kts | 71° |
| 2026-05-04 13:09 | 52.37725 | 3.06927 | 37009 ft | 470 kts | 71° |
| 2026-05-04 13:09 | 52.40296 | 3.16766 | 37006 ft | 472 kts | 61° |
| 2026-05-04 13:10 | 52.43988 | 3.25654 | 37006 ft | 473 kts | 53° |
| 2026-05-04 13:10 | 52.47926 | 3.34310 | 37011 ft | 474 kts | 53° |
| 2026-05-04 13:11 | 52.51867 | 3.42987 | 37013 ft | 474 kts | 53° |
| 2026-05-04 13:11 | 52.55811 | 3.51672 | 37016 ft | 475 kts | 53° |
| 2026-05-04 13:12 | 52.59753 | 3.60392 | 37018 ft | 475 kts | 53° |
| 2026-05-04 13:12 | 52.63690 | 3.69136 | 37020 ft | 475 kts | 53° |
| 2026-05-04 13:13 | 52.67618 | 3.77891 | 37021 ft | 475 kts | 53° |
| 2026-05-04 13:13 | 52.71542 | 3.86668 | 37017 ft | 476 kts | 54° |
| 2026-05-04 13:14 | 52.75489 | 3.95526 | 37014 ft | 476 kts | 54° |
| 2026-05-04 13:14 | 52.79332 | 4.04179 | 37009 ft | 476 kts | 54° |
| 2026-05-04 13:15 | 52.82579 | 4.11516 | 37008 ft | 476 kts | 54° |
| 2026-05-04 13:15 | 52.86479 | 4.20356 | 37006 ft | 476 kts | 54° |
| 2026-05-04 13:16 | 52.90333 | 4.29121 | 37013 ft | 475 kts | 54° |
| 2026-05-04 13:16 | 52.94218 | 4.37988 | 37014 ft | 475 kts | 54° |
| 2026-05-04 13:17 | 52.98103 | 4.46884 | 37017 ft | 475 kts | 54° |
| 2026-05-04 13:17 | 53.01975 | 4.55782 | 37019 ft | 475 kts | 54° |
| 2026-05-04 13:18 | 53.05841 | 4.64699 | 37017 ft | 475 kts | 54° |
| 2026-05-04 13:18 | 53.09725 | 4.73688 | 37015 ft | 475 kts | 54° |
| 2026-05-04 13:19 | 53.13576 | 4.82632 | 37013 ft | 476 kts | 54° |
| 2026-05-04 13:19 | 53.17357 | 4.91446 | 37013 ft | 476 kts | 54° |
| 2026-05-04 13:20 | 53.21198 | 5.00431 | 37014 ft | 476 kts | 54° |
| 2026-05-04 13:20 | 53.25035 | 5.09438 | 37011 ft | 476 kts | 54° |
| 2026-05-04 13:21 | 53.28870 | 5.18471 | 37014 ft | 476 kts | 54° |
| 2026-05-04 13:21 | 53.32694 | 5.27514 | 37015 ft | 476 kts | 54° |
| 2026-05-04 13:22 | 53.36539 | 5.36635 | 37025 ft | 476 kts | 54° |
| 2026-05-04 13:22 | 53.40325 | 5.45651 | 37024 ft | 476 kts | 54° |
| 2026-05-04 13:23 | 53.44156 | 5.54808 | 37024 ft | 476 kts | 54° |
| 2026-05-04 13:23 | 53.47956 | 5.63921 | 37023 ft | 476 kts | 54° |
| 2026-05-04 13:24 | 53.51597 | 5.72687 | 37019 ft | 476 kts | 54° |
| 2026-05-04 13:24 | 53.55383 | 5.81832 | 37016 ft | 476 kts | 54° |
| 2026-05-04 13:25 | 53.61075 | 5.95644 | 37016 ft | 477 kts | 54° |
| 2026-05-04 13:25 | 53.64824 | 6.04785 | 37019 ft | 477 kts | 54° |
| 2026-05-04 13:26 | 53.68619 | 6.14069 | 37018 ft | 477 kts | 54° |
| 2026-05-04 13:26 | 53.72377 | 6.23298 | 37017 ft | 477 kts | 55° |
| 2026-05-04 13:27 | 53.76129 | 6.32547 | 37016 ft | 477 kts | 55° |
| 2026-05-04 13:27 | 53.79851 | 6.41756 | 37015 ft | 477 kts | 55° |
| 2026-05-04 13:28 | 53.83588 | 6.51033 | 37018 ft | 477 kts | 55° |
| 2026-05-04 13:28 | 53.87345 | 6.60399 | 37017 ft | 477 kts | 55° |
| 2026-05-04 13:29 | 53.91069 | 6.69715 | 37020 ft | 477 kts | 55° |
| 2026-05-04 13:29 | 53.94789 | 6.79054 | 37019 ft | 477 kts | 55° |
| 2026-05-04 13:30 | 53.98500 | 6.88407 | 37015 ft | 478 kts | 55° |
| 2026-05-04 13:30 | 54.02207 | 6.97785 | 37016 ft | 478 kts | 55° |
| 2026-05-04 13:31 | 54.05905 | 7.07174 | 37020 ft | 478 kts | 55° |
| 2026-05-04 13:31 | 54.09599 | 7.16592 | 37029 ft | 478 kts | 55° |
| 2026-05-04 13:32 | 54.13286 | 7.26023 | 37021 ft | 478 kts | 55° |
| 2026-05-04 13:32 | 54.16887 | 7.35272 | 37027 ft | 478 kts | 55° |
| 2026-05-04 13:33 | 54.20585 | 7.44805 | 37021 ft | 479 kts | 55° |
| 2026-05-04 13:33 | 54.24258 | 7.54309 | 37024 ft | 479 kts | 56° |
| 2026-05-04 13:34 | 54.27920 | 7.63822 | 37027 ft | 479 kts | 56° |
| 2026-05-04 13:34 | 54.31625 | 7.73481 | 37023 ft | 479 kts | 56° |
| 2026-05-04 13:35 | 54.37094 | 7.87812 | 37026 ft | 479 kts | 56° |
| 2026-05-04 13:36 | 54.40734 | 7.97396 | 37022 ft | 479 kts | 56° |
| 2026-05-04 13:36 | 54.44364 | 8.06987 | 37024 ft | 479 kts | 56° |
| 2026-05-04 13:37 | 54.48013 | 8.16670 | 37020 ft | 479 kts | 56° |
| 2026-05-04 13:37 | 54.51631 | 8.26306 | 37019 ft | 479 kts | 56° |
| 2026-05-04 13:38 | 54.55239 | 8.35954 | 37010 ft | 479 kts | 56° |
| 2026-05-04 13:38 | 54.58840 | 8.45621 | 37014 ft | 479 kts | 56° |
| 2026-05-04 13:39 | 54.62435 | 8.55311 | 37010 ft | 479 kts | 56° |
| 2026-05-04 13:39 | 54.66020 | 8.65011 | 37008 ft | 479 kts | 56° |
| 2026-05-04 13:40 | 54.69603 | 8.74741 | 37006 ft | 480 kts | 56° |
| 2026-05-04 13:40 | 54.73178 | 8.84490 | 36998 ft | 480 kts | 56° |
| 2026-05-04 13:41 | 54.76167 | 8.92670 | 36997 ft | 480 kts | 56° |
| 2026-05-04 13:41 | 54.79734 | 9.02453 | 36993 ft | 480 kts | 56° |
| 2026-05-04 13:42 | 54.85079 | 9.17163 | 36990 ft | 481 kts | 56° |
| 2026-05-04 13:42 | 54.89229 | 9.26190 | 36988 ft | 478 kts | 46° |
| 2026-05-04 13:43 | 54.93656 | 9.34796 | 36990 ft | 478 kts | 46° |
| 2026-05-04 13:43 | 54.98066 | 9.43467 | 36993 ft | 478 kts | 46° |
| 2026-05-04 13:44 | 55.02457 | 9.52178 | 36992 ft | 478 kts | 46° |
| 2026-05-04 13:44 | 55.06834 | 9.60903 | 36990 ft | 478 kts | 47° |
| 2026-05-04 13:45 | 55.10561 | 9.70569 | 36730 ft | 482 kts | 62° |
| 2026-05-04 13:45 | 55.11946 | 9.75975 | 36479 ft | 481 kts | 69° |
| 2026-05-04 13:45 | 55.12989 | 9.81533 | 36215 ft | 482 kts | 72° |
| 2026-05-04 13:46 | 55.13985 | 9.87128 | 35959 ft | 482 kts | 72° |
| 2026-05-04 13:46 | 55.14993 | 9.92715 | 35707 ft | 482 kts | 72° |
| 2026-05-04 13:46 | 55.16001 | 9.98324 | 35160 ft | 485 kts | 72° |
| 2026-05-04 13:46 | 55.17008 | 10.03970 | 34426 ft | 487 kts | 72° |
| 2026-05-04 13:47 | 55.18016 | 10.09660 | 33448 ft | 492 kts | 72° |
| 2026-05-04 13:47 | 55.19022 | 10.15370 | 32528 ft | 487 kts | 72° |
| 2026-05-04 13:47 | 55.20008 | 10.20988 | 31738 ft | 478 kts | 72° |
| 2026-05-04 13:47 | 55.20976 | 10.26526 | 30873 ft | 473 kts | 72° |
| 2026-05-04 13:48 | 55.21934 | 10.32015 | 29955 ft | 470 kts | 72° |
| 2026-05-04 13:48 | 55.22880 | 10.37456 | 29310 ft | 470 kts | 72° |
| 2026-05-04 13:48 | 55.23851 | 10.43054 | 28809 ft | 487 kts | 72° |
| 2026-05-04 13:48 | 55.24834 | 10.48743 | 28180 ft | 490 kts | 72° |
| 2026-05-04 13:49 | 55.25820 | 10.54464 | 27535 ft | 489 kts | 72° |
| 2026-05-04 13:49 | 55.26794 | 10.60140 | 26894 ft | 484 kts | 73° |
| 2026-05-04 13:49 | 55.27759 | 10.65773 | 26259 ft | 479 kts | 73° |
| 2026-05-04 13:49 | 55.28725 | 10.71410 | 25622 ft | 474 kts | 72° |
| 2026-05-04 13:50 | 55.29669 | 10.76911 | 24985 ft | 469 kts | 72° |
| 2026-05-04 13:50 | 55.30603 | 10.82365 | 24354 ft | 464 kts | 72° |
| 2026-05-04 13:50 | 55.31527 | 10.87778 | 23738 ft | 460 kts | 72° |
| 2026-05-04 13:50 | 55.32440 | 10.93149 | 23000 ft | 455 kts | 72° |
| 2026-05-04 13:51 | 55.33326 | 10.98379 | 22467 ft | 438 kts | 73° |
| 2026-05-04 13:51 | 55.34170 | 11.03432 | 21880 ft | 425 kts | 73° |
| 2026-05-04 13:51 | 55.34984 | 11.08340 | 21314 ft | 413 kts | 73° |
| 2026-05-04 13:51 | 55.35740 | 11.12908 | 20779 ft | 403 kts | 73° |
| 2026-05-04 13:52 | 55.37375 | 11.22806 | 19615 ft | 443 kts | 73° |
| 2026-05-04 13:52 | 55.38241 | 11.28069 | 18995 ft | 449 kts | 73° |
| 2026-05-04 13:52 | 55.39101 | 11.33321 | 18536 ft | 445 kts | 73° |
| 2026-05-04 13:53 | 55.39949 | 11.38515 | 18131 ft | 437 kts | 73° |
| 2026-05-04 13:53 | 55.40770 | 11.43562 | 17912 ft | 422 kts | 73° |
| 2026-05-04 13:53 | 55.41559 | 11.48423 | 17735 ft | 406 kts | 73° |
| 2026-05-04 13:54 | 55.43620 | 11.57415 | 17261 ft | 407 kts | 57° |
| 2026-05-04 13:54 | 55.45135 | 11.61679 | 16862 ft | 412 kts | 55° |
| 2026-05-04 13:54 | 55.48159 | 11.70111 | 16236 ft | 397 kts | 56° |
| 2026-05-04 13:55 | 55.49579 | 11.74206 | 15954 ft | 397 kts | 56° |
| 2026-05-04 13:55 | 55.52427 | 11.82590 | 14991 ft | 392 kts | 57° |
| 2026-05-04 13:55 | 55.53823 | 11.86741 | 14446 ft | 389 kts | 57° |
| 2026-05-04 13:56 | 55.55195 | 11.90832 | 13945 ft | 385 kts | 57° |
| 2026-05-04 13:56 | 55.56554 | 11.94890 | 13385 ft | 382 kts | 57° |
| 2026-05-04 13:56 | 55.59233 | 12.02904 | 12293 ft | 375 kts | 57° |
| 2026-05-04 13:57 | 55.60559 | 12.06880 | 11784 ft | 371 kts | 57° |
| 2026-05-04 13:57 | 55.61885 | 12.10861 | 11236 ft | 368 kts | 58° |
| 2026-05-04 13:58 | 55.65638 | 12.22178 | 9915 ft | 330 kts | 58° |
| 2026-05-04 13:58 | 55.67874 | 12.28948 | 9075 ft | 310 kts | 57° |
| 2026-05-04 13:58 | 55.68960 | 12.32232 | 8509 ft | 307 kts | 57° |
| 2026-05-04 13:59 | 55.70032 | 12.35482 | 7917 ft | 305 kts | 57° |
| 2026-05-04 13:59 | 55.71093 | 12.38704 | 7424 ft | 300 kts | 57° |
| 2026-05-04 13:59 | 55.73173 | 12.45038 | 6366 ft | 294 kts | 57° |
| 2026-05-04 14:00 | 55.74196 | 12.48160 | 5795 ft | 292 kts | 57° |
| 2026-05-04 14:00 | 55.76211 | 12.54322 | 4756 ft | 285 kts | 57° |
| 2026-05-04 14:00 | 55.77200 | 12.57347 | 4277 ft | 281 kts | 57° |
| 2026-05-04 14:01 | 55.78176 | 12.60339 | 3817 ft | 278 kts | 57° |
| 2026-05-04 14:01 | 55.79137 | 12.63288 | 3301 ft | 274 kts | 57° |
| 2026-05-04 14:01 | 55.81048 | 12.69169 | 2996 ft | 273 kts | 58° |
| 2026-05-04 14:02 | 55.81634 | 12.72366 | 2995 ft | 274 kts | 84° |
| 2026-05-04 14:02 | 55.81344 | 12.75718 | 2997 ft | 279 kts | 112° |
| 2026-05-04 14:02 | 55.80551 | 12.78878 | 2997 ft | 279 kts | 115° |
| 2026-05-04 14:02 | 55.80007 | 12.81020 | 2992 ft | 277 kts | 115° |
| 2026-05-04 14:03 | 55.78960 | 12.85141 | 2992 ft | 279 kts | 115° |
| 2026-05-04 14:03 | 55.77934 | 12.88036 | 2991 ft | 274 kts | 139° |
| 2026-05-04 14:03 | 55.76365 | 12.89727 | 2991 ft | 260 kts | 168° |
| 2026-05-04 14:03 | 55.74668 | 12.89678 | 2992 ft | 234 kts | 206° |
| 2026-05-04 14:04 | 55.73040 | 12.86521 | 2998 ft | 205 kts | 251° |
| 2026-05-04 14:04 | 55.72570 | 12.84127 | 2979 ft | 208 kts | 254° |
| 2026-05-04 14:04 | 55.71925 | 12.81841 | 2841 ft | 204 kts | 238° |
| 2026-05-04 14:05 | 55.70053 | 12.78399 | 2708 ft | 180 kts | 226° |
| 2026-05-04 14:05 | 55.69149 | 12.76991 | 2588 ft | 165 kts | 226° |
| 2026-05-04 14:05 | 55.68336 | 12.75730 | 2505 ft | 146 kts | 227° |
| 2026-05-04 14:06 | 55.67624 | 12.74627 | 2508 ft | 129 kts | 228° |
| 2026-05-04 14:06 | 55.66971 | 12.73610 | 2381 ft | 123 kts | 228° |
| 2026-05-04 14:06 | 55.66311 | 12.72583 | 1997 ft | 131 kts | 227° |
| 2026-05-04 14:06 | 55.65583 | 12.71455 | 1426 ft | 146 kts | 226° |
| 2026-05-04 14:07 | 55.64817 | 12.70273 | 1001 ft | 144 kts | 226° |
| 2026-05-04 14:07 | 55.64092 | 12.69157 | 712 ft | 137 kts | 226° |
| 2026-05-04 14:07 | 55.63371 | 12.68065 | 321 ft | 132 kts | 226° |
| 2026-05-04 14:07 | 55.62712 | 12.67047 | 99 ft | 120 kts | 228° |
| 2026-05-04 14:08 | 55.62157 | 12.66164 | 20 ft | 107 kts | 227° |
| 2026-05-04 14:08 | 55.61758 | 12.65537 | 19 ft | 57 kts | 221° |
| 2026-05-04 14:08 | 55.61606 | 12.65200 | 17 ft | 28 kts | 267° |
| 2026-05-04 14:08 | 55.61653 | 12.64940 | 16 ft | 22 kts | 308° |
| 2026-05-04 14:09 | 55.61766 | 12.64797 | 19 ft | 0 kts | 345° |
| 2026-05-04 14:09 | 55.61789 | 12.64786 | 19 ft | 12 kts | 345° |
| 2026-05-04 14:10 | 55.61921 | 12.64849 | 18 ft | 3 kts | 29° |
| 2026-05-04 14:10 | 55.61957 | 12.64891 | 20 ft | 10 kts | 37° |
| 2026-05-04 14:10 | 55.62018 | 12.64967 | 21 ft | 13 kts | 30° |
| 2026-05-04 14:10 | 55.62097 | 12.65051 | 22 ft | 13 kts | 34° |
| 2026-05-04 14:11 | 55.62139 | 12.65101 | 23 ft | 5 kts | 34° |
| 2026-05-04 14:11 | 55.62184 | 12.65153 | 24 ft | 11 kts | 32° |
| 2026-05-04 14:11 | 55.62218 | 12.65187 | 24 ft | 3 kts | 24° |
| 2026-05-04 14:12 | 55.62230 | 12.65195 | 22 ft | 2 kts | 20° |
| 2026-05-04 14:12 | 55.62234 | 12.65197 | 22 ft | 0 kts | 17° |
| 2026-05-04 14:12 | 55.62292 | 12.65281 | 21 ft | 12 kts | 80° |
| 2026-05-04 14:13 | 55.62294 | 12.65460 | 19 ft | 17 kts | 89° |
| 2026-05-04 14:13 | 55.62299 | 12.65685 | 15 ft | 16 kts | 88° |
| 2026-05-04 14:13 | 55.62302 | 12.65899 | 15 ft | 17 kts | 89° |
| 2026-05-04 14:13 | 55.62353 | 12.66056 | 13 ft | 15 kts | 38° |
| 2026-05-04 14:14 | 55.62433 | 12.66180 | 18 ft | 16 kts | 42° |
| 2026-05-04 14:14 | 55.62514 | 12.66106 | 17 ft | 6 kts | 263° |
| 2026-05-04 14:14 | 55.62538 | 12.66025 | 17 ft | 7 kts | 304° |
| 2026-05-04 14:15 | 55.62553 | 12.65982 | 19 ft | 1 kts | 302° |
| 2026-05-04 14:15 | 55.62559 | 12.65965 | 18 ft | 0 kts | 303° |